createdAt,value
2018-06-25T00:00:21.547Z,100957.16
2018-06-25T00:02:50.046Z,100949.39
2018-06-25T00:05:18.526Z,100938.64
2018-06-25T00:07:47.006Z,100946.38
2018-06-25T00:10:15.492Z,100939.65
2018-06-25T00:12:44.061Z,100938.41
2018-06-25T00:15:12.573Z,100935.35
2018-06-25T00:17:41.212Z,100940.86
2018-06-25T00:20:09.729Z,100935.35
2018-06-25T00:22:38.270Z,100937.88
2018-06-25T00:25:06.791Z,100940.48
2018-06-25T00:27:35.317Z,100944.88
2018-06-25T00:30:04.043Z,100942.24
2018-06-25T00:32:32.648Z,100944.02
2018-06-25T00:35:01.280Z,100944.92
2018-06-25T00:37:29.830Z,100948.69
2018-06-25T00:39:58.348Z,100951.68
2018-06-25T00:42:27.205Z,100952.05
2018-06-25T00:44:55.844Z,100952.50
2018-06-25T00:47:24.447Z,100957.64
2018-06-25T00:49:52.925Z,100962.78
2018-06-25T00:52:21.446Z,100963.24
2018-06-25T00:54:49.923Z,100961.89
2018-06-25T00:57:18.501Z,100962.81
2018-06-25T00:59:55.641Z,100960.67
2018-06-25T01:02:24.577Z,100960.59
2018-06-25T01:04:53.186Z,100964.16
2018-06-25T01:07:21.801Z,100963.33
2018-06-25T01:09:50.554Z,100959.41
2018-06-25T01:12:19.089Z,100959.78
2018-06-25T01:14:47.571Z,100956.39
2018-06-25T01:17:16.111Z,100960.67
2018-06-25T01:19:44.696Z,100960.20
2018-06-25T01:22:13.263Z,100957.64
2018-06-25T01:24:41.875Z,100967.47
2018-06-25T01:27:11.149Z,100962.80
2018-06-25T01:29:41.017Z,100964.06
2018-06-25T01:32:09.781Z,100962.34
2018-06-25T01:34:38.646Z,100959.83
2018-06-25T01:37:07.307Z,100952.89
2018-06-25T01:39:35.862Z,100958.02
2018-06-25T01:42:04.431Z,100953.77
2018-06-25T01:44:33.027Z,100955.44
2018-06-25T01:47:01.540Z,100955.11
2018-06-25T01:49:30.108Z,100956.02
2018-06-25T01:51:58.661Z,100958.56
2018-06-25T01:54:27.296Z,100959.98
2018-06-25T01:56:55.922Z,100961.67
2018-06-25T01:59:24.377Z,100956.09
2018-06-25T02:01:53.149Z,100958.61
2018-06-25T02:04:21.696Z,100953.53
2018-06-25T02:06:50.349Z,100948.77
2018-06-25T02:09:18.988Z,100947.86
2018-06-25T02:11:47.598Z,100952.13
2018-06-25T02:14:16.280Z,100948.75
2018-06-25T02:16:44.886Z,100954.83
2018-06-25T02:19:13.510Z,100950.95
2018-06-25T02:21:42.099Z,100950.44
2018-06-25T02:24:10.640Z,100948.29
2018-06-25T02:26:39.206Z,100948.66
2018-06-25T02:29:07.755Z,100946.98
2018-06-25T02:31:36.470Z,100949.93
2018-06-25T02:34:05.547Z,100945.77
2018-06-25T02:36:34.070Z,100950.59
2018-06-25T02:39:02.799Z,100953.98
2018-06-25T02:41:31.386Z,100954.08
2018-06-25T02:43:59.935Z,100958.78
2018-06-25T02:46:28.530Z,100954.47
2018-06-25T02:48:57.138Z,100955.36
2018-06-25T02:51:25.814Z,100960.89
2018-06-25T02:53:54.377Z,100959.21
2018-06-25T02:56:23.065Z,100968.97
2018-06-25T02:58:51.640Z,100962.95
2018-06-25T03:01:20.490Z,100966.38
2018-06-25T03:03:49.140Z,100967.59
2018-06-25T03:06:17.792Z,100965.44
2018-06-25T03:08:46.515Z,100969.30
2018-06-25T03:11:15.254Z,100970.98
2018-06-25T03:13:43.798Z,100968.02
2018-06-25T03:16:12.430Z,100968.40
2018-06-25T03:18:40.963Z,100969.31
2018-06-25T03:21:09.707Z,100964.56
2018-06-25T03:23:38.251Z,100966.72
2018-06-25T03:26:06.896Z,100963.27
2018-06-25T03:28:35.547Z,100970.22
2018-06-25T03:31:04.322Z,100965.48
2018-06-25T03:33:32.838Z,100970.59
2018-06-25T03:36:01.462Z,100971.81
2018-06-25T03:38:30.071Z,100976.91
2018-06-25T03:40:58.921Z,100982.05
2018-06-25T03:43:27.666Z,100984.16
2018-06-25T03:45:56.252Z,100982.87
2018-06-25T03:48:24.890Z,100986.35
2018-06-25T03:50:53.435Z,100986.74
2018-06-25T03:53:22.190Z,100991.05
2018-06-25T03:55:50.914Z,100993.70
2018-06-25T03:58:19.555Z,100997.09
2018-06-25T04:00:48.310Z,100991.53
2018-06-25T04:03:16.906Z,100996.11
2018-06-25T04:05:45.629Z,101000.88
2018-06-25T04:08:14.217Z,101002.19
2018-06-25T04:10:43.224Z,101000.39
2018-06-25T04:13:11.862Z,101004.25
2018-06-25T04:15:40.482Z,101009.86
2018-06-25T04:18:09.024Z,101010.21
2018-06-25T04:20:37.697Z,101012.32
2018-06-25T04:23:06.567Z,101012.27
2018-06-25T04:25:35.236Z,101009.21
2018-06-25T04:28:04.076Z,101005.27
2018-06-25T04:30:32.719Z,101007.81
2018-06-25T04:33:01.297Z,101005.31
2018-06-25T04:35:29.819Z,101010.39
2018-06-25T04:37:58.396Z,101012.43
2018-06-25T04:40:27.124Z,101015.45
2018-06-25T04:42:55.603Z,101020.52
2018-06-25T04:45:24.224Z,101015.45
2018-06-25T04:47:52.874Z,101018.02
2018-06-25T04:50:21.610Z,101017.91
2018-06-25T04:52:50.419Z,101025.20
2018-06-25T04:55:18.998Z,101030.65
2018-06-25T04:57:48.088Z,101031.58
2018-06-25T05:00:16.591Z,101028.00
2018-06-25T05:02:45.193Z,101029.64
2018-06-25T05:05:13.960Z,101033.02
2018-06-25T05:07:42.647Z,101030.46
2018-06-25T05:10:11.158Z,101030.46
2018-06-25T05:12:39.827Z,101035.53
2018-06-25T05:15:08.918Z,101038.88
2018-06-25T05:17:37.677Z,101037.07
2018-06-25T05:20:06.351Z,101037.88
2018-06-25T05:22:35.150Z,101029.19
2018-06-25T05:25:03.736Z,101032.52
2018-06-25T05:27:32.419Z,101027.34
2018-06-25T05:30:01.029Z,101039.53
2018-06-25T05:32:29.575Z,101036.11
2018-06-25T05:34:58.244Z,101039.90
2018-06-25T05:37:26.945Z,101038.91
2018-06-25T05:39:55.492Z,101038.84
2018-06-25T05:42:24.293Z,101040.81
2018-06-25T05:44:53.433Z,101042.32
2018-06-25T05:47:22.423Z,101044.80
2018-06-25T05:49:51.508Z,101040.80
2018-06-25T05:52:20.092Z,101045.21
2018-06-25T05:54:48.739Z,101043.39
2018-06-25T05:57:17.467Z,101043.87
2018-06-25T05:59:45.964Z,101040.07
2018-06-25T06:02:15.028Z,101041.16
2018-06-25T06:04:43.643Z,101043.23
2018-06-25T06:07:12.708Z,101042.73
2018-06-25T06:09:41.448Z,101046.51
2018-06-25T06:12:10.026Z,101054.31
2018-06-25T06:14:38.583Z,101051.98
2018-06-25T06:17:07.176Z,101055.81
2018-06-25T06:19:35.765Z,101054.50
2018-06-25T06:22:04.402Z,101054.98
2018-06-25T06:24:32.999Z,101052.00
2018-06-25T06:27:01.605Z,101045.77
2018-06-25T06:29:30.253Z,101048.16
2018-06-25T06:31:58.959Z,101052.52
2018-06-25T06:34:27.565Z,101053.86
2018-06-25T06:36:56.153Z,101046.11
2018-06-25T06:39:24.837Z,101048.14
2018-06-25T06:41:53.593Z,101051.05
2018-06-25T06:44:22.327Z,101057.28
2018-06-25T06:46:51.427Z,101057.86
2018-06-25T06:49:20.749Z,101066.64
2018-06-25T06:51:49.415Z,101069.19
2018-06-25T06:54:17.982Z,101068.25
2018-06-25T06:56:47.769Z,101069.34
2018-06-25T06:59:16.628Z,101071.41
2018-06-25T07:01:45.230Z,101065.67
2018-06-25T07:04:14.066Z,101069.05
2018-06-25T07:06:42.671Z,101071.02
2018-06-25T07:09:12.942Z,101072.12
2018-06-25T07:11:41.962Z,101069.86
2018-06-25T07:14:11.151Z,101070.58
2018-06-25T07:16:40.862Z,101068.63
2018-06-25T07:19:09.843Z,101073.14
2018-06-25T07:21:39.026Z,101067.62
2018-06-25T07:24:07.969Z,101064.86
2018-06-25T07:26:36.539Z,101066.74
2018-06-25T07:29:05.715Z,101064.02
2018-06-25T07:31:34.953Z,101063.08
2018-06-25T07:34:03.640Z,101058.64
2018-06-25T07:36:32.487Z,101064.79
2018-06-25T07:39:01.306Z,101063.73
2018-06-25T07:41:29.990Z,101064.55
2018-06-25T07:43:58.620Z,101061.84
2018-06-25T07:46:27.301Z,101066.30
2018-06-25T07:48:55.939Z,101067.13
2018-06-25T07:51:24.646Z,101062.60
2018-06-25T07:53:54.555Z,101071.23
2018-06-25T07:56:23.343Z,101067.98
2018-06-25T07:58:52.202Z,101069.55
2018-06-25T08:01:20.937Z,101061.88
2018-06-25T08:04:20.201Z,101063.30
2018-06-25T08:06:49.220Z,101068.45
2018-06-25T08:09:17.743Z,101063.45
2018-06-25T08:11:46.260Z,101070.17
2018-06-25T08:14:14.929Z,101072.55
2018-06-25T08:16:43.847Z,101071.80
2018-06-25T08:19:12.543Z,101072.80
2018-06-25T08:21:41.165Z,101077.05
2018-06-25T08:24:09.918Z,101074.13
2018-06-25T08:26:38.512Z,101081.96
2018-06-25T08:29:07.234Z,101087.36
2018-06-25T08:31:37.649Z,101086.33
2018-06-25T08:34:06.669Z,101091.41
2018-06-25T08:36:35.275Z,101090.50
2018-06-25T08:39:04.219Z,101092.76
2018-06-25T08:41:32.812Z,101100.73
2018-06-25T08:44:01.627Z,101095.93
2018-06-25T08:46:30.163Z,101099.65
2018-06-25T08:48:58.675Z,101099.68
2018-06-25T08:51:27.488Z,101101.35
2018-06-25T08:53:56.027Z,101103.36
2018-06-25T08:56:24.668Z,101103.06
2018-06-25T08:58:53.439Z,101101.31
2018-06-25T09:01:22.290Z,101098.77
2018-06-25T09:03:50.841Z,101099.61
2018-06-25T09:06:19.429Z,101103.08
2018-06-25T09:08:47.942Z,101104.95
2018-06-25T09:11:16.599Z,101103.27
2018-06-25T09:13:45.214Z,101100.94
2018-06-25T09:16:13.829Z,101104.77
2018-06-25T09:18:42.758Z,101106.23
2018-06-25T09:21:11.358Z,101109.58
2018-06-25T09:23:39.958Z,101112.61
2018-06-25T09:26:08.522Z,101103.83
2018-06-25T09:28:37.538Z,101108.18
2018-06-25T09:31:06.543Z,101106.94
2018-06-25T09:33:35.521Z,101109.48
2018-06-25T09:36:04.195Z,101108.33
2018-06-25T09:38:33.203Z,101106.53
2018-06-25T09:41:02.001Z,101105.48
2018-06-25T09:43:30.552Z,101114.16
2018-06-25T09:45:59.243Z,101116.36
2018-06-25T09:48:27.743Z,101117.59
2018-06-25T09:50:56.333Z,101115.72
2018-06-25T09:53:25.046Z,101123.52
2018-06-25T09:55:53.582Z,101121.31
2018-06-25T09:58:22.157Z,101119.60
2018-06-25T10:00:56.107Z,101117.50
2018-06-25T10:03:24.688Z,101117.50
2018-06-25T10:05:53.574Z,101120.97
2018-06-25T10:08:22.174Z,101116.92
2018-06-25T10:10:50.755Z,101120.66
2018-06-25T10:13:19.359Z,101113.98
2018-06-25T10:15:47.986Z,101112.85
2018-06-25T10:18:16.550Z,101116.10
2018-06-25T10:20:45.192Z,101120.18
2018-06-25T10:23:13.965Z,101119.59
2018-06-25T10:25:42.554Z,101119.30
2018-06-25T10:28:11.146Z,101120.47
2018-06-25T10:30:39.716Z,101122.55
2018-06-25T10:33:08.356Z,101115.37
2018-06-25T10:35:36.872Z,101119.81
2018-06-25T10:38:05.823Z,101121.56
2018-06-25T10:40:34.386Z,101130.12
2018-06-25T10:43:02.908Z,101124.74
2018-06-25T10:45:31.373Z,101123.31
2018-06-25T10:47:59.918Z,101120.16
2018-06-25T10:53:11.537Z,101122.31
2018-06-25T10:55:40.258Z,101124.52
2018-06-25T10:58:08.890Z,101120.35
2018-06-25T11:00:37.497Z,101121.48
2018-06-25T11:03:06.285Z,101118.71
2018-06-25T11:05:34.903Z,101119.88
2018-06-25T11:08:03.533Z,101122.08
2018-06-25T11:10:32.177Z,101123.02
2018-06-25T11:13:00.816Z,101127.45
2018-06-25T11:15:29.522Z,101118.10
2018-06-25T11:17:58.116Z,101120.70
2018-06-25T11:20:26.843Z,101115.97
2018-06-25T11:22:55.505Z,101117.16
2018-06-25T11:25:24.113Z,101125.05
2018-06-25T11:27:52.784Z,101123.98
2018-06-25T11:30:21.496Z,101129.95
2018-06-25T11:32:50.482Z,101129.72
2018-06-25T11:35:19.367Z,101127.05
2018-06-25T11:37:48.023Z,101126.77
2018-06-25T11:40:17.155Z,101128.84
2018-06-25T11:42:46.033Z,101124.74
2018-06-25T11:45:14.702Z,101125.87
2018-06-25T11:47:43.300Z,101123.10
2018-06-25T11:50:12.794Z,101126.59
2018-06-25T11:52:41.375Z,101119.94
2018-06-25T11:55:09.910Z,101122.98
2018-06-25T11:57:38.543Z,101127.33
2018-06-25T12:00:07.307Z,101121.14
2018-06-25T12:02:35.919Z,101124.89
2018-06-25T12:05:04.421Z,101119.61
2018-06-25T12:07:32.977Z,101116.33
2018-06-25T12:10:01.497Z,101120.73
2018-06-25T12:12:30.372Z,101127.71
2018-06-25T12:14:58.884Z,101124.84
2018-06-25T12:17:27.569Z,101123.72
2018-06-25T12:19:56.612Z,101124.73
2018-06-25T12:22:25.158Z,101125.70
2018-06-25T12:24:53.834Z,101136.27
2018-06-25T12:27:22.371Z,101144.48
2018-06-25T12:29:50.926Z,101147.71
2018-06-25T12:32:19.560Z,101146.48
2018-06-25T12:34:48.123Z,101145.06
2018-06-25T12:37:16.784Z,101146.26
2018-06-25T12:39:45.554Z,101150.94
2018-06-25T12:42:14.170Z,101149.23
2018-06-25T12:44:42.783Z,101150.70
2018-06-25T12:47:11.349Z,101148.63
2018-06-25T12:49:40.293Z,101155.08
2018-06-25T12:52:08.954Z,101153.00
2018-06-25T12:54:37.764Z,101151.38
2018-06-25T12:57:07.514Z,101157.40
2018-06-25T12:59:36.780Z,101150.41
2018-06-25T13:02:05.437Z,101151.14
2018-06-25T13:04:34.170Z,101153.51
2018-06-25T13:07:02.731Z,101151.85
2018-06-25T13:09:31.680Z,101158.52
2018-06-25T13:12:00.347Z,101158.88
2018-06-25T13:14:28.972Z,101158.19
2018-06-25T13:16:59.220Z,101158.42
2018-06-25T13:19:28.145Z,101162.45
2018-06-25T13:21:56.716Z,101167.24
2018-06-25T13:24:25.480Z,101175.89
2018-06-25T13:26:54.493Z,101180.84
2018-06-25T13:29:23.157Z,101170.92
2018-06-25T13:31:51.800Z,101165.67
2018-06-25T13:34:20.952Z,101171.50
2018-06-25T13:36:49.834Z,101170.98
2018-06-25T13:39:18.466Z,101169.45
2018-06-25T13:41:47.341Z,101170.81
2018-06-25T13:44:15.846Z,101178.86
2018-06-25T13:46:44.556Z,101175.21
2018-06-25T13:49:13.224Z,101177.59
2018-06-25T13:51:41.802Z,101171.22
2018-06-25T13:54:10.326Z,101172.97
2018-06-25T13:56:38.927Z,101173.94
2018-06-25T13:59:07.479Z,101172.89
2018-06-25T14:01:36.246Z,101171.96
2018-06-25T14:04:05.111Z,101173.42
2018-06-25T14:06:33.755Z,101176.17
2018-06-25T14:09:02.291Z,101173.33
2018-06-25T14:11:30.854Z,101180.08
2018-06-25T14:14:00.611Z,101179.21
2018-06-25T14:16:29.269Z,101181.06
2018-06-25T14:18:57.907Z,101175.30
2018-06-25T14:21:26.620Z,101172.05
2018-06-25T14:24:00.722Z,101173.20
2018-06-25T14:26:34.574Z,101171.27
2018-06-25T14:29:05.316Z,101175.70
2018-06-25T14:31:33.923Z,101160.35
2018-06-25T14:34:08.025Z,101164.66
2018-06-25T14:36:36.604Z,101169.33
2018-06-25T14:39:08.830Z,101162.06
2018-06-25T14:41:37.423Z,101161.59
2018-06-25T14:44:07.038Z,101169.57
2018-06-25T14:46:36.033Z,101170.29
2018-06-25T14:49:04.911Z,101179.73
2018-06-25T14:51:34.148Z,101176.84
2018-06-25T14:54:03.200Z,101179.50
2018-06-25T14:56:31.897Z,101176.33
2018-06-25T14:59:00.565Z,101173.09
2018-06-25T15:01:29.396Z,101175.34
2018-06-25T15:03:58.210Z,101171.94
2018-06-25T15:06:26.903Z,101172.56
2018-06-25T15:08:55.540Z,101177.50
2018-06-25T15:11:24.442Z,101174.52
2018-06-25T15:13:52.998Z,101176.08
2018-06-25T15:16:21.568Z,101171.71
2018-06-25T15:18:50.073Z,101174.52
2018-06-25T15:21:18.765Z,101175.55
2018-06-25T15:23:47.426Z,101171.00
2018-06-25T15:26:16.066Z,101174.01
2018-06-25T15:28:44.749Z,101175.42
2018-06-25T15:31:13.651Z,101167.12
2018-06-25T15:33:42.371Z,101168.67
2018-06-25T15:36:10.960Z,101172.44
2018-06-25T15:38:39.720Z,101171.59
2018-06-25T15:41:08.240Z,101168.94
2018-06-25T15:43:36.815Z,101173.62
2018-06-25T15:46:05.725Z,101166.48
2018-06-25T15:48:34.405Z,101164.66
2018-06-25T15:51:03.011Z,101168.73
2018-06-25T15:53:31.975Z,101161.26
2018-06-25T15:56:01.943Z,101155.68
2018-06-25T15:58:30.922Z,101156.20
2018-06-25T16:00:59.531Z,101157.77
2018-06-25T16:03:29.375Z,101156.27
2018-06-25T16:05:57.963Z,101158.16
2018-06-25T16:08:26.685Z,101158.36
2018-06-25T16:10:55.255Z,101157.86
2018-06-25T16:13:23.841Z,101152.81
2018-06-25T16:15:52.735Z,101144.89
2018-06-25T16:18:21.653Z,101140.75
2018-06-25T16:20:50.239Z,101138.72
2018-06-25T16:23:19.159Z,101143.53
2018-06-25T16:25:48.386Z,101138.83
2018-06-25T16:28:20.382Z,101139.77
2018-06-25T16:30:48.906Z,101141.33
2018-06-25T16:33:17.393Z,101145.92
2018-06-25T16:35:46.001Z,101145.47
2018-06-25T16:38:14.879Z,101143.70
2018-06-25T16:40:43.544Z,101139.48
2018-06-25T16:43:12.097Z,101137.34
2018-06-25T16:45:40.978Z,101132.67
2018-06-25T16:48:09.559Z,101131.22
2018-06-25T16:50:38.328Z,101133.72
2018-06-25T16:53:06.977Z,101132.83
2018-06-25T16:55:35.556Z,101139.11
2018-06-25T16:58:04.136Z,101136.73
2018-06-25T17:00:34.563Z,101132.23
2018-06-25T17:03:03.339Z,101124.91
2018-06-25T17:05:31.892Z,101128.34
2018-06-25T17:08:00.521Z,101129.84
2018-06-25T17:10:29.219Z,101119.59
2018-06-25T17:12:57.765Z,101121.21
2018-06-25T17:15:26.338Z,101114.52
2018-06-25T17:17:55.151Z,101119.58
2018-06-25T17:20:23.891Z,101118.16
2018-06-25T17:22:52.573Z,101116.80
2018-06-25T17:25:21.324Z,101118.94
2018-06-25T17:27:50.354Z,101116.86
2018-06-25T17:30:19.105Z,101108.30
2018-06-25T17:32:47.865Z,101102.59
2018-06-25T17:35:16.628Z,101101.17
2018-06-25T17:37:45.309Z,101107.70
2018-06-25T17:40:13.918Z,101110.19
2018-06-25T17:42:42.516Z,101113.09
2018-06-25T17:45:11.824Z,101118.77
2018-06-25T17:47:40.371Z,101125.09
2018-06-25T17:50:08.963Z,101120.95
2018-06-25T17:52:37.719Z,101125.48
2018-06-25T17:55:06.406Z,101125.66
2018-06-25T17:57:34.973Z,101124.84
2018-06-25T18:00:03.505Z,101121.05
2018-06-25T18:02:32.378Z,101125.35
2018-06-25T18:05:00.958Z,101122.81
2018-06-25T18:07:29.618Z,101131.22
2018-06-25T18:09:58.245Z,101128.38
2018-06-25T18:12:26.829Z,101129.88
2018-06-25T18:14:55.469Z,101128.11
2018-06-25T18:17:24.145Z,101138.22
2018-06-25T18:19:52.734Z,101136.08
2018-06-25T18:22:21.368Z,101137.33
2018-06-25T18:24:49.961Z,101139.75
2018-06-25T18:27:18.533Z,101137.40
2018-06-25T18:29:47.294Z,101142.13
2018-06-25T18:32:16.055Z,101143.09
2018-06-25T18:34:44.904Z,101141.39
2018-06-25T18:37:13.791Z,101134.20
2018-06-25T18:39:42.526Z,101137.69
2018-06-25T18:42:11.299Z,101138.66
2018-06-25T18:44:40.292Z,101130.74
2018-06-25T18:47:08.824Z,101132.95
2018-06-25T18:49:37.351Z,101132.17
2018-06-25T18:52:06.097Z,101132.78
2018-06-25T18:54:34.938Z,101136.76
2018-06-25T18:57:03.562Z,101141.98
2018-06-25T18:59:32.079Z,101133.42
2018-06-25T19:02:00.617Z,101133.56
2018-06-25T19:04:29.385Z,101132.59
2018-06-25T19:06:58.432Z,101133.09
2018-06-25T19:09:30.039Z,101135.73
2018-06-25T19:11:58.989Z,101133.89
2018-06-25T19:14:28.396Z,101135.08
2018-06-25T19:16:57.939Z,101138.41
2018-06-25T19:19:29.089Z,101138.41
2018-06-25T19:22:00.782Z,101137.75
2018-06-25T19:24:30.157Z,101139.56
2018-06-25T19:26:59.411Z,101149.92
2018-06-25T19:29:29.031Z,101143.95
2018-06-25T19:32:01.110Z,101150.06
2018-06-25T19:34:29.851Z,101145.52
2018-06-25T19:36:58.551Z,101147.55
2018-06-25T19:39:30.981Z,101141.63
2018-06-25T19:41:59.545Z,101145.52
2018-06-25T19:44:32.342Z,101155.64
2018-06-25T19:47:04.359Z,101149.67
2018-06-25T19:49:34.933Z,101158.36
2018-06-25T19:52:09.625Z,101157.52
2018-06-25T19:54:42.421Z,101158.58
2018-06-25T19:57:13.408Z,101166.56
2018-06-25T19:59:46.347Z,101172.20
2018-06-25T20:02:15.194Z,101172.37
2018-06-25T20:04:44.316Z,101187.00
2018-06-25T20:07:12.870Z,101188.87
2018-06-25T20:09:41.745Z,101189.06
2018-06-25T20:12:10.584Z,101193.31
2018-06-25T20:14:39.468Z,101200.70
2018-06-25T20:17:08.139Z,101198.23
2018-06-25T20:19:37.244Z,101192.33
2018-06-25T20:22:05.833Z,101196.03
2018-06-25T20:24:34.440Z,101190.92
2018-06-25T20:27:03.239Z,101199.13
2018-06-25T20:29:32.507Z,101200.67
2018-06-25T20:32:01.295Z,101211.89
2018-06-25T20:34:29.851Z,101209.97
2018-06-25T20:36:58.577Z,101216.92
2018-06-25T20:39:27.117Z,101216.01
2018-06-25T20:41:55.685Z,101221.18
2018-06-25T20:44:24.246Z,101225.54
2018-06-25T20:46:52.929Z,101225.61
2018-06-25T20:49:21.428Z,101224.56
2018-06-25T20:51:50.111Z,101223.34
2018-06-25T20:54:18.678Z,101229.00
2018-06-25T20:56:47.281Z,101227.00
2018-06-25T20:59:16.664Z,101229.33
2018-06-25T21:01:45.961Z,101228.98
2018-06-25T21:04:14.617Z,101235.03
2018-06-25T21:06:43.128Z,101238.22
2018-06-25T21:09:12.979Z,101242.06
2018-06-25T21:11:42.237Z,101243.67
2018-06-25T21:14:11.075Z,101244.45
2018-06-25T21:16:39.813Z,101250.25
2018-06-25T21:19:08.314Z,101246.05
2018-06-25T21:21:36.922Z,101240.47
2018-06-25T21:24:06.018Z,101239.86
2018-06-25T21:26:34.893Z,101241.24
2018-06-25T21:29:03.769Z,101244.73
2018-06-25T21:31:32.315Z,101249.71
2018-06-25T21:34:01.047Z,101247.10
2018-06-25T21:36:29.606Z,101243.68
2018-06-25T21:38:58.177Z,101247.49
2018-06-25T21:41:27.092Z,101249.69
2018-06-25T21:43:55.742Z,101245.36
2018-06-25T21:46:24.335Z,101246.67
2018-06-25T21:48:53.157Z,101248.78
2018-06-25T21:51:21.793Z,101258.32
2018-06-25T21:53:50.471Z,101255.19
2018-06-25T21:56:19.023Z,101259.95
2018-06-25T21:58:47.714Z,101251.32
2018-06-25T22:01:16.307Z,101254.94
2018-06-25T22:03:45.271Z,101257.13
2018-06-25T22:06:13.806Z,101252.70
2018-06-25T22:08:42.295Z,101259.50
2018-06-25T22:11:11.023Z,101256.98
2018-06-25T22:13:39.603Z,101252.50
2018-06-25T22:16:08.115Z,101266.43
2018-06-25T22:18:36.725Z,101264.77
2018-06-25T22:21:05.356Z,101265.73
2018-06-25T22:23:33.870Z,101258.59
2018-06-25T22:26:02.508Z,101265.49
2018-06-25T22:28:31.033Z,101264.20
2018-06-25T22:30:59.628Z,101265.96
2018-06-25T22:33:28.138Z,101258.59
2018-06-25T22:35:56.658Z,101264.13
2018-06-25T22:38:25.225Z,101263.78
2018-06-25T22:40:53.921Z,101267.59
2018-06-25T22:43:22.410Z,101266.14
2018-06-25T22:45:50.945Z,101270.88
2018-06-25T22:48:19.474Z,101274.44
2018-06-25T22:50:48.021Z,101271.25
2018-06-25T22:53:16.594Z,101275.56
2018-06-25T22:55:45.187Z,101279.32
2018-06-25T22:58:13.694Z,101270.11
2018-06-25T23:00:42.329Z,101271.51
2018-06-25T23:03:10.890Z,101267.50
2018-06-25T23:05:39.467Z,101267.37
2018-06-25T23:08:08.116Z,101270.00
2018-06-25T23:10:36.733Z,101268.19
2018-06-25T23:13:05.587Z,101268.91
2018-06-25T23:15:34.688Z,101261.40
2018-06-25T23:18:03.269Z,101268.88
2018-06-25T23:20:31.843Z,101262.86
2018-06-25T23:23:00.441Z,101262.98
2018-06-25T23:25:28.950Z,101273.29
2018-06-25T23:27:57.514Z,101275.70
2018-06-25T23:30:26.010Z,101280.17
2018-06-25T23:32:54.471Z,101280.48
2018-06-25T23:35:23.055Z,101283.08
2018-06-25T23:37:51.677Z,101279.56
2018-06-25T23:40:20.313Z,101273.59
2018-06-25T23:42:48.807Z,101273.59
2018-06-25T23:45:17.339Z,101265.16
2018-06-25T23:47:45.854Z,101257.31
2018-06-25T23:50:14.373Z,101265.78
2018-06-25T23:52:42.869Z,101263.38
2018-06-25T23:55:11.394Z,101264.97
2018-06-25T23:57:39.872Z,101262.84
